createdAt,value
2017-03-05T00:00:39.898Z,6.21
2017-03-05T00:01:48.998Z,6.17
2017-03-05T00:02:59.615Z,6.17
2017-03-05T00:04:08.696Z,6.09
2017-03-05T00:05:17.781Z,6.17
2017-03-05T00:06:27.646Z,6.19
2017-03-05T00:07:37.919Z,6.14
2017-03-05T00:08:47.002Z,6.17
2017-03-05T00:09:57.634Z,6.34
2017-03-05T00:11:07.109Z,6.34
2017-03-05T00:12:16.969Z,6.19
2017-03-05T00:13:26.847Z,6.36
2017-03-05T00:14:36.349Z,6.21
2017-03-05T00:15:45.052Z,6.22
2017-03-05T00:16:54.923Z,6.21
2017-03-05T00:18:04.805Z,6.25
2017-03-05T00:19:14.664Z,6.21
2017-03-05T00:20:24.535Z,6.19
2017-03-05T00:21:34.776Z,6.09
2017-03-05T00:22:43.863Z,6.17
2017-03-05T00:23:54.122Z,6.11
2017-03-05T00:25:03.633Z,6.09
2017-03-05T00:26:12.711Z,6.04
2017-03-05T00:27:22.560Z,6.11
2017-03-05T00:28:32.408Z,6.12
2017-03-05T00:29:41.901Z,6.12
2017-03-05T00:30:51.736Z,6.14
2017-03-05T00:32:01.609Z,6.15
2017-03-05T00:33:11.071Z,6.36
2017-03-05T00:34:20.556Z,6.33
2017-03-05T00:35:29.650Z,6.43
2017-03-05T00:36:38.748Z,6.51
2017-03-05T00:37:47.853Z,6.49
2017-03-05T00:38:56.550Z,6.4
2017-03-05T00:40:06.026Z,6.28
2017-03-05T00:41:15.106Z,6.22
2017-03-05T00:42:25.344Z,6.25
2017-03-05T00:43:34.054Z,6.31
2017-03-05T00:44:43.514Z,6.21
2017-03-05T00:45:52.993Z,6.18
2017-03-05T00:47:02.518Z,6.15
2017-03-05T00:48:12.381Z,6.21
2017-03-05T00:49:22.229Z,6.18
2017-03-05T00:50:31.720Z,6.18
2017-03-05T00:51:41.185Z,6.15
2017-03-05T00:52:50.251Z,6.19
2017-03-05T00:53:58.953Z,6.19
2017-03-05T00:55:08.056Z,6.19
2017-03-05T00:56:17.514Z,6.21
2017-03-05T00:57:26.619Z,6.31
2017-03-05T00:58:36.853Z,6.37
2017-03-05T00:59:46.700Z,6.44
2017-03-05T01:00:56.947Z,6.54
2017-03-05T01:02:05.668Z,6.69
2017-03-05T01:03:15.899Z,6.71
2017-03-05T01:04:25.002Z,6.73
2017-03-05T01:05:34.125Z,6.62
2017-03-05T01:06:44.360Z,6.59
2017-03-05T01:07:53.825Z,6.48
2017-03-05T01:09:03.301Z,6.44
2017-03-05T01:10:13.532Z,6.3
2017-03-05T01:11:23.377Z,6.49
2017-03-05T01:12:32.470Z,6.38
2017-03-05T01:13:42.331Z,6.36
2017-03-05T01:14:51.831Z,6.37
2017-03-05T01:16:00.542Z,6.4
2017-03-05T01:17:09.242Z,6.36
2017-03-05T01:18:18.347Z,6.34
2017-03-05T01:19:27.808Z,6.27
2017-03-05T01:20:36.887Z,6.18
2017-03-05T01:21:46.343Z,6.33
2017-03-05T01:22:55.824Z,6.37
2017-03-05T01:24:05.314Z,6.36
2017-03-05T01:25:15.165Z,6.49
2017-03-05T01:26:23.869Z,6.73
2017-03-05T01:27:32.959Z,6.73
2017-03-05T01:28:42.845Z,6.8
2017-03-05T01:29:53.079Z,6.67
2017-03-05T01:31:01.783Z,6.67
2017-03-05T01:32:11.279Z,6.62
2017-03-05T01:33:20.770Z,6.56
2017-03-05T01:34:29.880Z,6.54
2017-03-05T01:35:38.962Z,6.49
2017-03-05T01:36:48.049Z,6.46
2017-03-05T01:37:57.132Z,6.46
2017-03-05T01:39:06.994Z,6.41
2017-03-05T01:40:16.454Z,6.48
2017-03-05T01:41:25.547Z,6.43
2017-03-05T01:42:35.422Z,6.46
2017-03-05T01:43:45.691Z,6.48
2017-03-05T01:44:54.788Z,6.43
2017-03-05T01:46:03.899Z,6.41
2017-03-05T01:47:12.618Z,6.41
2017-03-05T01:48:22.110Z,6.46
2017-03-05T01:49:31.968Z,6.54
2017-03-05T01:50:41.467Z,6.64
2017-03-05T01:51:51.703Z,6.71
2017-03-05T01:53:01.928Z,6.69
2017-03-05T01:54:11.013Z,6.81
2017-03-05T01:55:21.263Z,6.73
2017-03-05T01:56:30.745Z,6.85
2017-03-05T01:57:39.829Z,6.77
2017-03-05T01:58:48.549Z,6.71
2017-03-05T01:59:58.018Z,6.69
2017-03-05T02:01:07.116Z,6.62
2017-03-05T02:02:16.979Z,6.58
2017-03-05T02:03:26.839Z,6.64
2017-03-05T02:04:36.316Z,6.62
2017-03-05T02:05:45.411Z,6.61
2017-03-05T02:06:56.029Z,6.58
2017-03-05T02:08:05.130Z,6.59
2017-03-05T02:09:15.000Z,6.61
2017-03-05T02:10:24.479Z,6.51
2017-03-05T02:11:33.561Z,6.49
2017-03-05T02:12:43.412Z,6.49
2017-03-05T02:13:53.258Z,6.49
2017-03-05T02:15:03.117Z,6.55
2017-03-05T02:16:11.807Z,6.54
2017-03-05T02:17:20.908Z,6.7
2017-03-05T02:18:30.384Z,6.71
2017-03-05T02:19:40.239Z,6.7
2017-03-05T02:20:50.113Z,6.71
2017-03-05T02:21:59.594Z,6.69
2017-03-05T02:23:09.112Z,6.77
2017-03-05T02:24:18.216Z,6.77
2017-03-05T02:25:28.451Z,6.64
2017-03-05T02:26:38.304Z,6.58
2017-03-05T02:27:48.151Z,6.52
2017-03-05T02:28:58.381Z,6.55
2017-03-05T02:30:07.456Z,6.55
2017-03-05T02:31:16.933Z,6.58
2017-03-05T02:32:26.788Z,6.55
2017-03-05T02:33:35.881Z,6.62
2017-03-05T02:34:45.360Z,6.56
2017-03-05T02:35:54.840Z,6.55
2017-03-05T02:37:05.079Z,6.56
2017-03-05T02:38:15.323Z,6.51
2017-03-05T02:39:25.565Z,6.54
2017-03-05T02:40:35.424Z,6.49
2017-03-05T02:41:44.888Z,6.55
2017-03-05T02:42:53.592Z,6.54
2017-03-05T02:44:02.693Z,6.59
2017-03-05T02:45:12.550Z,6.59
2017-03-05T02:46:21.245Z,6.7
2017-03-05T02:47:31.487Z,6.74
2017-03-05T02:48:41.354Z,6.94
2017-03-05T02:49:50.822Z,6.92
2017-03-05T02:51:00.672Z,7.12
2017-03-05T02:52:10.140Z,7.09
2017-03-05T02:53:20.383Z,7.06
2017-03-05T02:54:30.629Z,7.12
2017-03-05T02:55:40.111Z,7.07
2017-03-05T02:56:49.969Z,6.97
2017-03-05T02:57:59.431Z,6.91
2017-03-05T02:59:09.269Z,6.95
2017-03-05T03:00:18.726Z,6.92
2017-03-05T03:01:28.594Z,6.85
2017-03-05T03:02:38.850Z,6.92
2017-03-05T03:03:47.936Z,6.91
2017-03-05T03:04:57.428Z,6.92
2017-03-05T03:06:07.288Z,6.91
2017-03-05T03:07:16.366Z,6.91
2017-03-05T03:08:25.468Z,6.94
2017-03-05T03:09:34.932Z,6.87
2017-03-05T03:10:44.017Z,6.97
2017-03-05T03:11:53.125Z,6.94
2017-03-05T03:13:02.964Z,6.91
2017-03-05T03:14:12.843Z,6.89
2017-03-05T03:15:23.078Z,6.85
2017-03-05T03:16:32.544Z,6.81
2017-03-05T03:17:42.022Z,6.87
2017-03-05T03:18:52.261Z,6.84
2017-03-05T03:20:02.110Z,6.91
2017-03-05T03:21:11.567Z,6.95
2017-03-05T03:22:20.645Z,7.05
2017-03-05T03:23:30.876Z,7.07
2017-03-05T03:24:40.346Z,7.03
2017-03-05T03:25:50.194Z,7.12
2017-03-05T03:26:59.651Z,7.12
2017-03-05T03:28:09.492Z,7.09
2017-03-05T03:29:18.958Z,6.91
2017-03-05T03:30:28.040Z,6.87
2017-03-05T03:31:37.488Z,6.84
2017-03-05T03:32:47.320Z,6.81
2017-03-05T03:33:56.771Z,6.92
2017-03-05T03:35:05.847Z,6.88
2017-03-05T03:36:14.921Z,6.81
2017-03-05T03:37:24.402Z,6.81
2017-03-05T03:38:33.100Z,6.79
2017-03-05T03:39:42.959Z,6.87
2017-03-05T03:40:52.793Z,6.81
2017-03-05T03:42:02.649Z,6.64
2017-03-05T03:43:12.876Z,6.7
2017-03-05T03:44:21.936Z,6.77
2017-03-05T03:45:31.390Z,6.87
2017-03-05T03:46:40.874Z,6.94
2017-03-05T03:47:51.532Z,7.06
2017-03-05T03:49:00.236Z,6.98
2017-03-05T03:50:09.332Z,6.94
2017-03-05T03:51:18.425Z,6.99
2017-03-05T03:52:28.284Z,6.97
2017-03-05T03:53:37.352Z,6.97
2017-03-05T03:54:47.189Z,6.92
2017-03-05T03:55:57.016Z,6.81
2017-03-05T03:57:07.232Z,6.81
2017-03-05T03:58:16.298Z,6.79
2017-03-05T03:59:25.771Z,6.79
2017-03-05T04:00:35.246Z,6.77
2017-03-05T04:01:44.688Z,6.94
2017-03-05T04:02:54.137Z,6.92
2017-03-05T04:04:03.610Z,6.92
2017-03-05T04:05:13.452Z,6.8
2017-03-05T04:06:22.921Z,6.76
2017-03-05T04:07:31.975Z,6.77
2017-03-05T04:08:41.428Z,6.73
2017-03-05T04:09:51.264Z,6.73
2017-03-05T04:11:01.112Z,6.64
2017-03-05T04:12:11.361Z,6.61
2017-03-05T04:13:20.466Z,6.62
2017-03-05T04:14:29.160Z,6.64
2017-03-05T04:15:38.616Z,6.54
2017-03-05T04:16:48.059Z,6.56
2017-03-05T04:17:57.507Z,6.55
2017-03-05T04:19:07.736Z,6.71
2017-03-05T04:20:16.422Z,6.71
2017-03-05T04:21:25.881Z,6.64
2017-03-05T04:22:34.961Z,6.51
2017-03-05T04:23:44.434Z,6.48
2017-03-05T04:24:53.521Z,6.54
2017-03-05T04:26:03.376Z,6.54
2017-03-05T04:27:12.813Z,6.54
2017-03-05T04:28:21.530Z,6.56
2017-03-05T04:29:30.632Z,6.48
2017-03-05T04:30:40.486Z,6.56
2017-03-05T04:31:50.338Z,6.69
2017-03-05T04:32:59.415Z,6.64
2017-03-05T04:34:09.246Z,6.49
2017-03-05T04:35:18.326Z,6.66
2017-03-05T04:36:28.544Z,6.67
2017-03-05T04:37:38.000Z,6.58
2017-03-05T04:38:47.465Z,6.64
2017-03-05T04:39:56.951Z,6.66
2017-03-05T04:41:06.407Z,6.66
2017-03-05T04:42:15.873Z,6.64
2017-03-05T04:43:24.935Z,6.51
2017-03-05T04:44:34.801Z,6.64
2017-03-05T04:45:44.661Z,6.73
2017-03-05T04:46:54.498Z,6.69
2017-03-05T04:48:03.559Z,6.7
2017-03-05T04:49:12.279Z,6.71
2017-03-05T04:50:21.730Z,6.85
2017-03-05T04:51:30.439Z,6.73
2017-03-05T04:52:40.304Z,6.74
2017-03-05T04:53:50.549Z,6.73
2017-03-05T04:54:59.629Z,6.87
2017-03-05T04:56:08.726Z,6.73
2017-03-05T04:57:18.168Z,6.73
2017-03-05T04:58:28.006Z,6.71
2017-03-05T04:59:37.457Z,6.71
2017-03-05T05:00:46.909Z,6.85
2017-03-05T05:01:56.353Z,6.71
2017-03-05T05:03:05.801Z,6.7
2017-03-05T05:04:16.023Z,6.73
2017-03-05T05:05:25.487Z,6.69
2017-03-05T05:06:34.953Z,6.67
2017-03-05T05:07:44.429Z,6.76
2017-03-05T05:08:53.892Z,6.66
2017-03-05T05:10:03.720Z,6.59
2017-03-05T05:11:13.552Z,6.67
2017-03-05T05:12:22.649Z,6.7
2017-03-05T05:13:31.722Z,6.67
2017-03-05T05:14:41.171Z,6.56
2017-03-05T05:15:49.877Z,6.62
2017-03-05T05:16:58.954Z,6.52
2017-03-05T05:18:08.433Z,6.44
2017-03-05T05:19:17.488Z,6.46
2017-03-05T05:20:27.332Z,6.48
2017-03-05T05:21:36.020Z,6.49
2017-03-05T05:22:45.487Z,6.48
2017-03-05T05:23:55.700Z,6.46
2017-03-05T05:25:05.171Z,6.49
2017-03-05T05:26:14.619Z,6.7
2017-03-05T05:27:24.074Z,6.66
2017-03-05T05:28:33.526Z,6.73
2017-03-05T05:29:42.985Z,6.74
2017-03-05T05:30:52.431Z,6.77
2017-03-05T05:32:01.501Z,6.79
2017-03-05T05:33:11.370Z,6.8
2017-03-05T05:34:20.457Z,6.76
2017-03-05T05:35:29.535Z,6.7
2017-03-05T05:36:38.236Z,6.81
2017-03-05T05:37:48.115Z,6.76
2017-03-05T05:38:57.596Z,6.76
2017-03-05T05:40:06.303Z,6.8
2017-03-05T05:41:15.394Z,6.73
2017-03-05T05:42:25.600Z,6.77
2017-03-05T05:43:35.437Z,6.77
2017-03-05T05:44:44.496Z,6.81
2017-03-05T05:45:53.951Z,6.79
2017-03-05T05:47:03.032Z,6.81
2017-03-05T05:48:12.485Z,6.85
2017-03-05T05:49:21.569Z,6.87
2017-03-05T05:50:31.035Z,6.94
2017-03-05T05:51:40.511Z,6.88
2017-03-05T05:52:49.953Z,6.88
2017-03-05T05:53:59.022Z,6.95
2017-03-05T05:55:09.252Z,6.98
2017-03-05T05:56:18.334Z,7.09
2017-03-05T05:57:28.185Z,7.12
2017-03-05T05:58:38.021Z,7.03
2017-03-05T05:59:47.093Z,6.97
2017-03-05T06:00:56.556Z,7.05
2017-03-05T06:02:06.792Z,7.09
2017-03-05T06:03:16.651Z,7.06
2017-03-05T06:04:26.102Z,7.06
2017-03-05T06:05:35.951Z,7.1
2017-03-05T06:06:45.778Z,7.21
2017-03-05T06:07:54.843Z,7.13
2017-03-05T06:09:04.674Z,7.16
2017-03-05T06:10:13.734Z,7.21
2017-03-05T06:11:23.607Z,7.23
2017-03-05T06:12:33.431Z,7.21
2017-03-05T06:13:42.895Z,7.09
2017-03-05T06:14:52.724Z,7.07
2017-03-05T06:16:02.196Z,7.06
2017-03-05T06:17:12.432Z,7.07
2017-03-05T06:18:21.525Z,7.12
2017-03-05T06:19:30.593Z,7.15
2017-03-05T06:20:39.658Z,7.16
2017-03-05T06:21:49.500Z,7.06
2017-03-05T06:22:58.598Z,7.09
2017-03-05T06:24:08.436Z,7.07
2017-03-05T06:25:17.501Z,7.06
2017-03-05T06:26:26.587Z,7.05
2017-03-05T06:27:36.423Z,7.06
2017-03-05T06:28:46.287Z,7.07
2017-03-05T06:29:55.744Z,7.05
2017-03-05T06:31:05.969Z,7.09
2017-03-05T06:32:15.803Z,7.09
2017-03-05T06:33:25.261Z,7.09
2017-03-05T06:34:34.347Z,7.07
2017-03-05T06:35:44.194Z,7.09
2017-03-05T06:36:54.430Z,7.06
2017-03-05T06:38:03.119Z,7.1
2017-03-05T06:39:12.197Z,7.24
2017-03-05T06:40:21.661Z,7.28
2017-03-05T06:41:30.733Z,7.31
2017-03-05T06:42:40.581Z,7.17
2017-03-05T06:43:50.045Z,7.12
2017-03-05T06:44:59.137Z,7.07
2017-03-05T06:46:09.383Z,7.05
2017-03-05T06:47:18.854Z,7.07
2017-03-05T06:48:27.929Z,6.99
2017-03-05T06:49:37.398Z,7.09
2017-03-05T06:50:46.076Z,7.1
2017-03-05T06:51:56.321Z,7.13
2017-03-05T06:53:06.181Z,7.16
2017-03-05T06:54:15.624Z,7.2
2017-03-05T06:55:25.532Z,7.25
2017-03-05T06:56:34.987Z,7.31
2017-03-05T06:57:44.855Z,7.34
2017-03-05T06:58:53.918Z,7.31
2017-03-05T07:00:03.769Z,7.3
2017-03-05T07:01:13.616Z,7.24
2017-03-05T07:02:22.690Z,7.34
2017-03-05T07:03:32.530Z,7.46
2017-03-05T07:04:42.394Z,7.45
2017-03-05T07:05:52.604Z,7.42
2017-03-05T07:07:02.431Z,7.46
2017-03-05T07:08:11.893Z,7.45
2017-03-05T07:09:20.598Z,7.46
2017-03-05T07:10:30.060Z,7.34
2017-03-05T07:11:39.898Z,7.34
2017-03-05T07:12:49.756Z,7.37
2017-03-05T07:13:59.595Z,7.4
2017-03-05T07:15:09.820Z,7.4
2017-03-05T07:16:19.279Z,7.35
2017-03-05T07:17:27.979Z,7.34
2017-03-05T07:18:37.453Z,7.35
2017-03-05T07:19:46.522Z,7.34
2017-03-05T07:20:56.369Z,7.35
2017-03-05T07:22:06.213Z,7.35
2017-03-05T07:23:15.667Z,7.37
2017-03-05T07:24:25.118Z,7.46
2017-03-05T07:25:34.965Z,7.42
2017-03-05T07:26:44.429Z,7.43
2017-03-05T07:27:54.301Z,7.45
2017-03-05T07:29:04.140Z,7.64
2017-03-05T07:30:13.594Z,7.72
2017-03-05T07:31:22.650Z,7.75
2017-03-05T07:32:31.362Z,7.77
2017-03-05T07:33:40.061Z,7.8
2017-03-05T07:34:50.329Z,7.77
2017-03-05T07:35:59.401Z,7.75
2017-03-05T07:37:08.865Z,7.85
2017-03-05T07:38:18.711Z,7.85
2017-03-05T07:39:28.168Z,7.89
2017-03-05T07:40:37.635Z,7.86
2017-03-05T07:41:47.123Z,7.95
2017-03-05T07:42:56.588Z,8.02
2017-03-05T07:44:05.302Z,8.02
2017-03-05T07:45:14.761Z,8.04
2017-03-05T07:46:23.853Z,7.95
2017-03-05T07:47:33.694Z,7.92
2017-03-05T07:48:43.157Z,7.89
2017-03-05T07:49:53.375Z,7.89
2017-03-05T07:51:02.451Z,8
2017-03-05T07:52:11.537Z,8.05
2017-03-05T07:53:20.996Z,8.12
2017-03-05T07:54:30.448Z,8.07
2017-03-05T07:55:39.902Z,8.05
2017-03-05T07:56:48.989Z,8.05
2017-03-05T07:57:59.219Z,8.16
2017-03-05T07:59:09.101Z,8.18
2017-03-05T08:00:18.162Z,8.22
2017-03-05T08:01:27.247Z,8.18
2017-03-05T08:02:36.722Z,8.19
2017-03-05T08:03:46.181Z,8.26
2017-03-05T08:04:56.459Z,8.5
2017-03-05T08:06:06.306Z,8.61
2017-03-05T08:07:16.192Z,8.47
2017-03-05T08:08:24.899Z,8.48
2017-03-05T08:09:34.756Z,8.41
2017-03-05T08:10:44.624Z,8.44
2017-03-05T08:11:54.472Z,8.56
2017-03-05T08:13:04.304Z,8.56
2017-03-05T08:14:13.746Z,8.59
2017-03-05T08:15:22.829Z,8.61
2017-03-05T08:16:32.299Z,8.59
2017-03-05T08:17:41.787Z,8.61
2017-03-05T08:18:51.255Z,8.55
2017-03-05T08:20:01.858Z,8.71
2017-03-05T08:21:11.310Z,8.73
2017-03-05T08:22:20.770Z,8.83
2017-03-05T08:23:29.844Z,8.86
2017-03-05T08:24:38.952Z,8.84
2017-03-05T08:25:48.463Z,8.8
2017-03-05T08:26:57.549Z,8.79
2017-03-05T08:28:06.630Z,8.8
2017-03-05T08:29:16.090Z,8.79
2017-03-05T08:30:25.554Z,8.74
2017-03-05T08:31:35.789Z,8.71
2017-03-05T08:32:45.637Z,8.71
2017-03-05T08:33:55.480Z,8.68
2017-03-05T08:35:04.560Z,8.63
2017-03-05T08:36:13.259Z,8.73
2017-03-05T08:37:22.716Z,8.79
2017-03-05T08:38:32.175Z,8.73
2017-03-05T08:39:41.627Z,8.71
2017-03-05T08:40:52.238Z,8.61
2017-03-05T08:42:01.322Z,8.63
2017-03-05T08:43:10.794Z,8.65
2017-03-05T08:44:20.628Z,8.58
2017-03-05T08:45:30.098Z,8.66
2017-03-05T08:46:39.209Z,8.63
2017-03-05T08:47:48.687Z,8.65
2017-03-05T08:48:58.522Z,8.62
2017-03-05T08:50:07.993Z,8.62
2017-03-05T08:51:17.841Z,8.62
2017-03-05T08:52:27.680Z,8.58
2017-03-05T08:53:37.526Z,8.58
2017-03-05T08:54:46.984Z,8.63
2017-03-05T08:55:56.444Z,8.76
2017-03-05T08:57:06.276Z,8.73
2017-03-05T08:58:15.745Z,8.84
2017-03-05T08:59:24.822Z,8.77
2017-03-05T09:00:34.278Z,8.94
2017-03-05T09:01:44.129Z,9.02
2017-03-05T09:02:53.596Z,9.15
2017-03-05T09:04:03.063Z,9.2
2017-03-05T09:05:12.957Z,9.21
2017-03-05T09:06:22.033Z,9.17
2017-03-05T09:07:31.508Z,9.28
2017-03-05T09:08:42.117Z,9.2
2017-03-05T09:09:51.198Z,9.42
2017-03-05T09:11:00.298Z,9.46
2017-03-05T09:12:09.789Z,9.56
2017-03-05T09:13:19.240Z,9.47
2017-03-05T09:14:28.735Z,9.56
2017-03-05T09:15:37.802Z,9.6
2017-03-05T09:16:47.272Z,9.56
2017-03-05T09:17:55.985Z,9.61
2017-03-05T09:19:06.220Z,9.61
2017-03-05T09:20:15.300Z,9.58
2017-03-05T09:21:24.770Z,9.61
2017-03-05T09:22:33.851Z,9.66
2017-03-05T09:23:43.300Z,9.66
2017-03-05T09:24:52.376Z,9.72
2017-03-05T09:26:01.072Z,9.56
2017-03-05T09:27:10.537Z,9.6
2017-03-05T09:28:19.618Z,9.72
2017-03-05T09:29:28.694Z,9.75
2017-03-05T09:30:38.171Z,9.6
2017-03-05T09:31:47.257Z,9.83
2017-03-05T09:32:55.957Z,9.83
2017-03-05T09:34:05.808Z,9.99
2017-03-05T09:35:15.306Z,10.11
2017-03-05T09:36:24.016Z,10.36
2017-03-05T09:37:33.863Z,10.71
2017-03-05T09:38:43.723Z,10.96
2017-03-05T09:39:53.177Z,11.21
2017-03-05T09:41:02.653Z,11.37
2017-03-05T09:42:11.732Z,11.44
2017-03-05T09:43:21.233Z,11.51
2017-03-05T09:44:30.687Z,11.54
2017-03-05T09:45:40.160Z,11.61
2017-03-05T09:46:49.619Z,11.72
2017-03-05T09:47:59.469Z,11.69
2017-03-05T09:49:08.572Z,11.78
2017-03-05T09:50:17.282Z,11.82
2017-03-05T09:51:26.755Z,11.95
2017-03-05T09:52:36.601Z,12.13
2017-03-05T09:53:45.728Z,12.13
2017-03-05T09:54:55.999Z,12.05
2017-03-05T09:56:05.841Z,11.86
2017-03-05T09:57:14.931Z,11.75
2017-03-05T09:58:24.026Z,11.6
2017-03-05T09:59:33.491Z,11.49
2017-03-05T10:00:42.570Z,11.58
2017-03-05T10:01:52.036Z,11.86
2017-03-05T10:03:01.512Z,12.07
2017-03-05T10:04:10.593Z,12.29
2017-03-05T10:05:20.077Z,12.45
2017-03-05T10:06:29.193Z,12.56
2017-03-05T10:07:38.668Z,12.77
2017-03-05T10:08:48.146Z,12.56
2017-03-05T10:09:57.230Z,12.21
2017-03-05T10:11:06.318Z,11.88
2017-03-05T10:12:16.179Z,11.64
2017-03-05T10:13:25.645Z,11.51
2017-03-05T10:14:35.099Z,11.57
2017-03-05T10:15:44.204Z,11.65
2017-03-05T10:16:54.039Z,11.57
2017-03-05T10:18:02.724Z,11.62
2017-03-05T10:19:11.821Z,12.05
2017-03-05T10:20:20.893Z,12.29
2017-03-05T10:21:30.730Z,12.67
2017-03-05T10:22:40.203Z,13.05
2017-03-05T10:23:49.709Z,13.08
2017-03-05T10:24:59.554Z,12.93
2017-03-05T10:26:10.156Z,12.86
2017-03-05T10:27:19.639Z,13.05
2017-03-05T10:28:29.476Z,12.93
2017-03-05T10:29:38.931Z,12.53
2017-03-05T10:30:47.621Z,12.74
2017-03-05T10:31:57.503Z,12.86
2017-03-05T10:33:06.966Z,12.68
2017-03-05T10:34:16.421Z,13.03
2017-03-05T10:35:27.058Z,12.83
2017-03-05T10:36:36.537Z,13.05
2017-03-05T10:37:46.423Z,12.87
2017-03-05T10:38:55.527Z,13.25
2017-03-05T10:40:05.014Z,13.73
2017-03-05T10:41:15.237Z,13.01
2017-03-05T10:42:23.942Z,12.78
2017-03-05T10:43:33.020Z,12.72
2017-03-05T10:44:42.497Z,12.2
2017-03-05T10:45:52.366Z,11.64
2017-03-05T10:47:01.854Z,11.57
2017-03-05T10:48:11.314Z,11.54
2017-03-05T10:49:21.567Z,11.67
2017-03-05T10:50:31.042Z,11.62
2017-03-05T10:51:41.275Z,11.33
2017-03-05T10:52:51.140Z,11.21
2017-03-05T10:54:00.218Z,11.09
2017-03-05T10:55:10.064Z,11.04
2017-03-05T10:56:19.919Z,11.02
2017-03-05T10:57:28.614Z,11.36
2017-03-05T10:58:38.835Z,11.9
2017-03-05T10:59:48.296Z,12.53
2017-03-05T11:00:57.764Z,13.51
2017-03-05T11:02:07.594Z,13.7
2017-03-05T11:03:16.703Z,13.33
2017-03-05T11:04:25.794Z,13.08
2017-03-05T11:05:34.875Z,12.56
2017-03-05T11:06:43.578Z,12.19
2017-03-05T11:07:53.413Z,11.52
2017-03-05T11:09:03.259Z,11.51
2017-03-05T11:10:11.987Z,11.44
2017-03-05T11:11:21.456Z,11.61
2017-03-05T11:12:30.923Z,12.09
2017-03-05T11:13:40.384Z,12.79
2017-03-05T11:14:50.627Z,13.42
2017-03-05T11:16:00.484Z,13.97
2017-03-05T11:17:10.719Z,14.21
2017-03-05T11:18:19.420Z,14.5
2017-03-05T11:19:29.297Z,14.45
2017-03-05T11:20:38.373Z,14.61
2017-03-05T11:21:48.208Z,14.27
2017-03-05T11:22:57.307Z,14.18
2017-03-05T11:24:07.183Z,14.07
2017-03-05T11:25:15.924Z,14.18
2017-03-05T11:26:25.758Z,14.07
2017-03-05T11:27:35.606Z,13.92
2017-03-05T11:28:45.079Z,14.09
2017-03-05T11:29:53.792Z,13.59
2017-03-05T11:31:03.287Z,12.68
2017-03-05T11:32:13.147Z,12.16
2017-03-05T11:33:22.987Z,11.8
2017-03-05T11:34:32.833Z,11.42
2017-03-05T11:35:41.919Z,11.14
2017-03-05T11:36:51.005Z,11.67
2017-03-05T11:38:00.851Z,12.53
2017-03-05T11:39:10.722Z,13.15
2017-03-05T11:40:20.610Z,13.64
2017-03-05T11:41:30.445Z,13.57
2017-03-05T11:42:40.307Z,13.15
2017-03-05T11:43:49.023Z,12.93
2017-03-05T11:44:58.113Z,12.49
2017-03-05T11:46:08.376Z,12.23
2017-03-05T11:47:18.241Z,12.16
2017-03-05T11:48:27.717Z,12.05
2017-03-05T11:49:36.802Z,11.96
2017-03-05T11:50:46.306Z,11.99
2017-03-05T11:51:55.385Z,11.86
2017-03-05T11:53:04.849Z,11.62
2017-03-05T11:54:15.060Z,11.64
2017-03-05T11:55:24.141Z,11.65
2017-03-05T11:56:33.989Z,11.6
2017-03-05T11:57:43.447Z,11.51
2017-03-05T11:58:52.928Z,11.25
2017-03-05T12:00:02.800Z,11.11
2017-03-05T12:01:11.528Z,11.15
2017-03-05T12:02:20.240Z,11.18
2017-03-05T12:03:30.135Z,11.46
2017-03-05T12:04:39.592Z,11.62
2017-03-05T12:05:48.680Z,11.69
2017-03-05T12:06:58.545Z,11.78
2017-03-05T12:08:07.247Z,11.99
2017-03-05T12:09:17.455Z,12.1
2017-03-05T12:10:26.527Z,11.99
2017-03-05T12:11:36.372Z,11.9
2017-03-05T12:12:45.867Z,11.9
2017-03-05T12:13:54.953Z,11.85
2017-03-05T12:15:04.450Z,11.64
2017-03-05T12:16:14.338Z,11.62
2017-03-05T12:17:23.416Z,11.67
2017-03-05T12:18:33.680Z,11.86
2017-03-05T12:19:42.755Z,11.94
2017-03-05T12:20:51.831Z,11.9
2017-03-05T12:22:00.536Z,11.79
2017-03-05T12:23:10.006Z,11.91
2017-03-05T12:24:19.457Z,12.16
2017-03-05T12:25:29.307Z,12.04
2017-03-05T12:26:38.372Z,11.96
2017-03-05T12:27:47.839Z,11.98
2017-03-05T12:28:57.719Z,11.9
2017-03-05T12:30:07.556Z,11.86
2017-03-05T12:31:17.004Z,11.82
2017-03-05T12:32:27.228Z,11.78
2017-03-05T12:33:37.459Z,11.85
2017-03-05T12:34:47.329Z,11.94
2017-03-05T12:35:57.164Z,12.04
2017-03-05T12:37:06.643Z,12.07
2017-03-05T12:38:16.520Z,12.27
2017-03-05T12:39:25.984Z,12.29
2017-03-05T12:40:35.850Z,12.32
2017-03-05T12:41:45.698Z,12.49
2017-03-05T12:42:55.547Z,12.46
2017-03-05T12:44:05.391Z,12.47
2017-03-05T12:45:14.874Z,12.32
2017-03-05T12:46:24.741Z,12.35
2017-03-05T12:47:34.211Z,12.17
2017-03-05T12:48:44.092Z,12.1
2017-03-05T12:49:53.582Z,12.05
2017-03-05T12:51:03.437Z,12.07
2017-03-05T12:52:13.673Z,11.99
2017-03-05T12:53:23.899Z,11.83
2017-03-05T12:54:33.361Z,11.79
2017-03-05T12:55:42.828Z,11.9
2017-03-05T12:56:51.924Z,11.82
2017-03-05T12:58:01.395Z,11.83
2017-03-05T12:59:11.636Z,11.76
2017-03-05T13:00:21.920Z,11.65
2017-03-05T13:01:31.786Z,11.67
2017-03-05T13:02:40.873Z,11.55
2017-03-05T13:03:51.098Z,11.76
2017-03-05T13:05:00.168Z,11.61
2017-03-05T13:06:09.263Z,11.52
2017-03-05T13:07:19.531Z,11.57
2017-03-05T13:08:29.042Z,11.65
2017-03-05T13:09:38.921Z,11.73
2017-03-05T13:10:48.753Z,11.8
2017-03-05T13:11:58.631Z,11.82
2017-03-05T13:13:07.713Z,12.04
2017-03-05T13:14:17.580Z,12.14
2017-03-05T13:15:27.409Z,12.2
2017-03-05T13:16:36.881Z,12.17
2017-03-05T13:17:46.361Z,12.19
2017-03-05T13:18:55.828Z,12.27
2017-03-05T13:20:05.290Z,12.35
2017-03-05T13:21:14.360Z,12.39
2017-03-05T13:22:24.269Z,12.62
2017-03-05T13:23:34.115Z,12.49
2017-03-05T13:24:43.216Z,12.42
2017-03-05T13:25:53.089Z,12.54
2017-03-05T13:27:02.546Z,12.67
2017-03-05T13:28:12.017Z,12.7
2017-03-05T13:29:21.467Z,12.68
2017-03-05T13:30:30.559Z,12.71
2017-03-05T13:31:39.260Z,12.85
2017-03-05T13:32:48.366Z,12.96
2017-03-05T13:33:58.208Z,12.95
2017-03-05T13:35:07.696Z,13.2
2017-03-05T13:36:17.557Z,13.1
2017-03-05T13:37:26.634Z,13.05
2017-03-05T13:38:36.096Z,12.77
2017-03-05T13:39:45.174Z,12.35
2017-03-05T13:40:55.013Z,12.17
2017-03-05T13:42:04.503Z,12.14
2017-03-05T13:43:14.722Z,12.2
2017-03-05T13:44:24.573Z,12.21
2017-03-05T13:45:34.065Z,12.13
2017-03-05T13:46:42.748Z,12.24
2017-03-05T13:47:52.263Z,12.27
2017-03-05T13:49:01.336Z,12.32
2017-03-05T13:50:10.047Z,12.32
2017-03-05T13:51:19.906Z,12.41
2017-03-05T13:52:29.384Z,12.52
2017-03-05T13:53:38.854Z,12.54
2017-03-05T13:54:47.930Z,12.54
2017-03-05T13:55:57.406Z,12.54
2017-03-05T13:57:06.884Z,12.65
2017-03-05T13:58:16.350Z,12.68
2017-03-05T13:59:25.449Z,12.74
2017-03-05T14:00:34.901Z,12.82
2017-03-05T14:01:44.754Z,12.75
2017-03-05T14:02:54.238Z,12.75
2017-03-05T14:04:03.712Z,12.67
2017-03-05T14:05:13.181Z,12.65
2017-03-05T14:06:22.273Z,12.56
2017-03-05T14:07:31.726Z,12.49
2017-03-05T14:08:41.576Z,12.47
2017-03-05T14:09:51.031Z,12.29
2017-03-05T14:11:00.098Z,12.28
2017-03-05T14:12:09.552Z,12.23
2017-03-05T14:13:19.015Z,12.14
2017-03-05T14:14:28.501Z,12.09
2017-03-05T14:15:37.570Z,12.01
2017-03-05T14:16:47.031Z,12.07
2017-03-05T14:17:56.134Z,11.95
2017-03-05T14:19:05.626Z,11.9
2017-03-05T14:20:15.080Z,11.88
2017-03-05T14:21:24.564Z,11.86
2017-03-05T14:22:34.024Z,11.82
2017-03-05T14:23:43.481Z,11.6
2017-03-05T14:24:52.951Z,11.6
2017-03-05T14:26:02.814Z,11.57
2017-03-05T14:27:12.263Z,11.42
2017-03-05T14:28:22.145Z,11.33
2017-03-05T14:29:32.006Z,11.33
2017-03-05T14:30:41.098Z,11.24
2017-03-05T14:31:50.566Z,11.14
2017-03-05T14:33:00.018Z,10.89
2017-03-05T14:34:09.477Z,10.85
2017-03-05T14:35:18.956Z,10.66
2017-03-05T14:36:27.656Z,10.36
2017-03-05T14:37:37.905Z,10.22
2017-03-05T14:38:48.144Z,10.01
2017-03-05T14:39:58.037Z,10.01
2017-03-05T14:41:07.867Z,9.74
2017-03-05T14:42:16.952Z,9.66
2017-03-05T14:43:26.801Z,9.53
2017-03-05T14:44:35.861Z,9.43
2017-03-05T14:45:44.950Z,9.29
2017-03-05T14:46:54.406Z,9.28
2017-03-05T14:48:03.872Z,9.2
2017-03-05T14:49:13.730Z,9.05
2017-03-05T14:50:23.175Z,8.89
2017-03-05T14:51:31.865Z,8.71
2017-03-05T14:52:40.968Z,8.58
2017-03-05T14:53:50.848Z,8.36
2017-03-05T14:54:59.929Z,8.4
2017-03-05T14:56:09.373Z,8.28
2017-03-05T14:57:18.853Z,8.26
2017-03-05T14:58:28.705Z,8.16
2017-03-05T14:59:39.343Z,8.15
2017-03-05T15:00:49.563Z,8.16
2017-03-05T15:01:58.640Z,8.07
2017-03-05T15:03:08.476Z,7.98
2017-03-05T15:04:17.543Z,7.89
2017-03-05T15:05:26.995Z,7.85
2017-03-05T15:06:36.055Z,7.72
2017-03-05T15:07:45.506Z,7.67
2017-03-05T15:08:54.953Z,7.75
2017-03-05T15:10:04.406Z,7.63
2017-03-05T15:11:13.860Z,7.48
2017-03-05T15:12:23.703Z,7.39
2017-03-05T15:13:32.402Z,7.32
2017-03-05T15:14:41.492Z,7.21
2017-03-05T15:15:50.939Z,7.06
2017-03-05T15:17:00.037Z,7.06